Time;durP1;ratioP1;P1;durP2;ratioP2;P2;SDS_P1;SDS_P2;PMS_P1;PMS_P2;Temp;Humidity;BMP_temperature;BMP_pressure;BME280_temperature;BME280_humidity;BME280_pressure;Samples;Min_cycle;Max_cycle;Signal;HPM_P1;HPM_P2
2022/05/17 00:01:54;;;;;;;4.75;2.45;;;14.90;99.90;;;;;;5058255;28;20036;-73
2022/05/17 00:04:20;;;;;;;5.88;2.17;;;14.70;99.90;;;;;;5058001;28;20048;-73
2022/05/17 00:06:47;;;;;;;7.40;3.25;;;14.70;99.90;;;;;;5074843;28;20048;-73
2022/05/17 00:09:16;;;;;;;6.03;2.95;;;14.60;99.90;;;;;;5058060;28;20050;-73
2022/05/17 00:11:43;;;;;;;5.13;2.22;;;14.60;99.90;;;;;;5058319;28;20483;-72
2022/05/17 00:14:10;;;;;;;3.90;2.08;;;14.60;99.90;;;;;;5041577;28;20086;-73
2022/05/17 00:16:36;;;;;;;4.22;2.08;;;14.50;99.90;;;;;;5074175;28;20051;-72
2022/05/17 00:19:01;;;;;;;2.63;1.77;;;14.50;99.90;;;;;;5057989;28;20044;-73
2022/05/17 00:21:27;;;;;;;5.63;2.50;;;14.50;99.90;;;;;;5057874;28;20079;-73
2022/05/17 00:23:53;;;;;;;5.57;2.10;;;14.50;99.90;;;;;;5057526;28;20089;-73
2022/05/17 00:26:19;;;;;;;5.65;2.20;;;14.50;99.90;;;;;;5057592;28;20045;-73
2022/05/17 00:28:44;;;;;;;5.82;2.08;;;14.50;99.90;;;;;;5041060;28;20041;-73
2022/05/17 00:31:10;;;;;;;4.15;2.05;;;14.50;99.90;;;;;;5057352;28;20040;-73
2022/05/17 00:33:36;;;;;;;4.45;2.30;;;14.50;99.90;;;;;;5074035;28;20051;-73
2022/05/17 00:36:03;;;;;;;3.38;2.38;;;14.50;99.90;;;;;;5057631;28;20129;-73
2022/05/17 00:38:29;;;;;;;6.10;2.17;;;14.50;99.90;;;;;;5074234;28;20480;-73
2022/05/17 00:40:54;;;;;;;4.43;2.33;;;14.50;99.90;;;;;;5057590;28;20055;-73
2022/05/17 00:46:25;;;;;;;6.10;2.20;;;14.50;99.90;;;;;;5074087;28;20400;-73
2022/05/17 00:48:52;;;;;;;7.45;2.33;;;14.50;99.90;;;;;;5074093;28;20044;-73
2022/05/17 00:51:18;;;;;;;4.53;2.05;;;14.50;99.90;;;;;;5057146;28;20193;-73
2022/05/17 00:53:45;;;;;;;7.22;2.20;;;14.40;99.90;;;;;;5073475;28;20044;-73
2022/05/17 00:56:16;;;;;;;3.28;2.00;;;14.40;99.90;;;;;;5072915;28;20036;-73
2022/05/17 00:58:52;;;;;;;5.78;1.70;;;14.40;99.90;;;;;;5073671;28;20040;-73
2022/05/17 01:01:20;;;;;;;3.72;2.05;;;14.40;99.90;;;;;;5074147;28;20136;-73
2022/05/17 01:03:50;;;;;;;4.55;1.90;;;14.40;99.90;;;;;;5073694;28;20044;-72
2022/05/17 01:06:17;;;;;;;8.98;2.08;;;14.40;99.90;;;;;;5057026;28;20047;-73
2022/05/17 01:08:43;;;;;;;6.07;2.03;;;14.40;99.90;;;;;;5056775;28;20051;-73
2022/05/17 01:11:09;;;;;;;9.93;2.63;;;14.40;99.90;;;;;;5056668;28;20064;-73
2022/05/17 01:16:22;;;;;;;5.72;1.95;;;14.30;99.90;;;;;;5073095;28;20169;-73
2022/05/17 01:18:47;;;;;;;5.38;1.98;;;14.40;99.90;;;;;;5056832;28;20036;-73
2022/05/17 01:21:13;;;;;;;4.25;2.70;;;14.40;99.90;;;;;;5039961;28;20115;-73
2022/05/17 01:23:39;;;;;;;6.85;1.98;;;14.30;99.90;;;;;;5056455;28;20052;-72
2022/05/17 01:26:06;;;;;;;5.38;2.03;;;14.30;99.90;;;;;;5073155;28;20128;-72
2022/05/17 01:28:36;;;;;;;4.25;1.67;;;14.30;99.90;;;;;;5073286;28;20143;-73
2022/05/17 01:31:07;;;;;;;3.38;1.75;;;14.30;99.90;;;;;;5073032;28;20090;-72
2022/05/17 01:33:37;;;;;;;4.50;1.75;;;14.20;99.90;;;;;;5072925;28;20403;-72
2022/05/17 01:36:06;;;;;;;3.60;2.03;;;14.20;99.90;;;;;;5056326;28;20175;-73
2022/05/17 01:38:33;;;;;;;2.97;2.10;;;14.20;99.90;;;;;;5072895;28;20066;-72
2022/05/17 01:40:59;;;;;;;3.53;1.70;;;14.20;99.90;;;;;;5073115;28;20069;-72
2022/05/17 01:43:25;;;;;;;5.85;2.15;;;14.20;99.90;;;;;;5073032;28;20123;-72
2022/05/17 01:45:51;;;;;;;5.72;1.98;;;14.40;99.90;;;;;;5072710;28;20055;-72
2022/05/17 01:48:16;;;;;;;4.00;1.85;;;14.20;99.90;;;;;;5072972;28;20048;-72
2022/05/17 01:50:43;;;;;;;3.00;1.88;;;14.20;99.90;;;;;;5072507;28;20123;-73
2022/05/17 01:53:09;;;;;;;2.80;2.08;;;14.10;99.90;;;;;;5056366;28;20044;-73
2022/05/17 01:55:35;;;;;;;6.25;1.80;;;14.10;99.90;;;;;;5072623;28;20041;-72
2022/05/17 01:58:00;;;;;;;6.88;2.10;;;14.10;99.90;;;;;;5072659;28;20051;-72
2022/05/17 02:00:26;;;;;;;6.07;1.73;;;14.10;99.90;;;;;;5072426;28;20044;-73
2022/05/17 02:02:53;;;;;;;4.68;1.92;;;14.00;99.90;;;;;;5055625;28;20499;-73
2022/05/17 02:05:21;;;;;;;8.25;2.53;;;14.10;99.90;;;;;;5055462;28;20040;-73
2022/05/17 02:07:50;;;;;;;4.63;2.55;;;14.10;99.90;;;;;;5072147;28;20060;-73
2022/05/17 02:10:16;;;;;;;8.13;2.20;;;14.10;99.90;;;;;;5055521;28;20097;-73
2022/05/17 02:12:41;;;;;;;6.07;2.58;;;14.00;99.90;;;;;;5055739;28;20411;-73
2022/05/17 02:15:08;;;;;;;4.20;2.08;;;14.10;99.90;;;;;;5055323;28;20135;-73
2022/05/17 02:17:35;;;;;;;6.65;2.40;;;14.00;99.90;;;;;;5072365;28;20542;-73
2022/05/17 02:20:05;;;;;;;3.90;2.13;;;14.00;99.90;;;;;;5055527;28;20049;-73
2022/05/17 02:22:31;;;;;;;3.17;1.77;;;14.00;99.90;;;;;;5039623;28;20503;-73
2022/05/17 02:24:56;;;;;;;6.50;2.40;;;14.00;99.90;;;;;;5038893;28;20044;-73
2022/05/17 02:27:22;;;;;;;8.05;2.88;;;14.00;99.90;;;;;;5038787;28;20045;-73
2022/05/17 02:29:48;;;;;;;3.63;2.63;;;14.00;99.90;;;;;;5072008;28;20043;-73
2022/05/17 02:32:14;;;;;;;2.83;1.90;;;13.90;99.90;;;;;;5071791;28;20051;-73
2022/05/17 02:34:41;;;;;;;6.13;2.22;;;13.90;99.90;;;;;;5038588;28;20036;-73
2022/05/17 02:37:06;;;;;;;4.07;2.53;;;13.90;99.90;;;;;;5071776;28;20076;-73
2022/05/17 02:39:34;;;;;;;6.07;2.88;;;13.90;99.90;;;;;;5055127;28;20137;-73
2022/05/17 02:42:00;;;;;;;5.50;2.38;;;13.90;99.90;;;;;;5055284;28;20499;-73
2022/05/17 02:44:27;;;;;;;8.88;2.67;;;13.80;99.90;;;;;;5072031;28;20051;-73
2022/05/17 02:46:52;;;;;;;7.75;2.35;;;13.80;99.90;;;;;;5071654;28;20067;-73
2022/05/17 02:49:18;;;;;;;6.90;2.90;;;13.80;99.90;;;;;;5054909;28;20496;-73
2022/05/17 02:51:44;;;;;;;6.40;2.67;;;13.80;99.90;;;;;;5055192;28;20123;-73
2022/05/17 02:54:10;;;;;;;6.28;2.58;;;13.80;99.90;;;;;;5071584;28;20079;-73
2022/05/17 02:56:37;;;;;;;3.00;2.13;;;13.80;99.90;;;;;;5038328;28;20139;-73
2022/05/17 02:59:03;;;;;;;5.72;2.53;;;13.80;99.90;;;;;;5054905;28;20102;-73
2022/05/17 03:01:29;;;;;;;5.50;2.78;;;13.80;99.90;;;;;;5071557;28;20043;-73
2022/05/17 03:03:55;;;;;;;8.65;2.83;;;13.70;99.90;;;;;;5054895;28;20040;-73
2022/05/17 03:06:22;;;;;;;5.13;2.80;;;14.00;99.90;;;;;;5071498;28;20041;-73
2022/05/17 03:08:47;;;;;;;5.78;3.08;;;13.70;99.90;;;;;;5071492;28;20040;-73
2022/05/17 03:11:13;;;;;;;6.78;3.00;;;13.70;99.90;;;;;;5071673;28;20063;-73
2022/05/17 03:13:39;;;;;;;4.22;1.83;;;13.70;99.90;;;;;;5054684;28;20135;-73
2022/05/17 03:16:06;;;;;;;5.75;3.13;;;14.00;99.90;;;;;;5054634;28;20056;-73
2022/05/17 03:18:31;;;;;;;5.20;3.05;;;13.70;99.90;;;;;;5056459;28;20059;-73
2022/05/17 03:20:57;;;;;;;6.57;2.85;;;13.80;99.90;;;;;;5042094;28;20044;-73
2022/05/17 03:23:23;;;;;;;3.60;2.53;;;13.60;99.90;;;;;;5058979;28;20052;-73
2022/05/17 03:25:49;;;;;;;4.80;2.90;;;13.60;99.90;;;;;;5075291;28;20123;-73
2022/05/17 03:28:14;;;;;;;11.55;2.53;;;13.60;99.90;;;;;;5075614;28;20041;-73
2022/05/17 03:30:41;;;;;;;7.10;3.20;;;13.60;99.90;;;;;;5058479;28;20041;-73
2022/05/17 03:33:07;;;;;;;4.93;2.55;;;13.60;99.90;;;;;;5042049;28;20045;-73
2022/05/17 03:35:33;;;;;;;4.60;2.38;;;13.60;99.90;;;;;;5075200;28;20123;-73
2022/05/17 03:37:59;;;;;;;4.75;2.60;;;13.50;99.90;;;;;;5075348;28;20043;-73
2022/05/17 03:40:25;;;;;;;3.92;2.35;;;13.50;99.90;;;;;;5075321;28;20045;-73
2022/05/17 03:42:51;;;;;;;6.47;2.38;;;13.50;99.90;;;;;;5075288;28;20044;-73
2022/05/17 03:45:16;;;;;;;5.22;2.72;;;13.50;99.90;;;;;;5074862;28;20045;-73
2022/05/17 03:47:42;;;;;;;4.63;2.72;;;13.40;99.90;;;;;;5074869;28;20041;-73
2022/05/17 03:50:09;;;;;;;6.13;2.05;;;13.40;99.90;;;;;;5074841;28;20495;-73
2022/05/17 03:52:35;;;;;;;7.50;3.13;;;13.40;99.90;;;;;;5058491;28;20041;-73
2022/05/17 03:55:04;;;;;;;9.50;2.50;;;13.40;99.90;;;;;;5074996;28;20595;-73
2022/05/17 03:57:29;;;;;;;3.63;2.13;;;13.40;99.90;;;;;;5058086;28;20072;-73
2022/05/17 03:59:55;;;;;;;8.10;3.03;;;14.00;99.90;;;;;;5041476;28;20546;-73
2022/05/17 04:02:24;;;;;;;4.72;2.38;;;13.40;99.90;;;;;;5058033;28;20089;-73
2022/05/17 04:04:54;;;;;;;4.65;2.83;;;13.40;99.90;;;;;;5058149;28;20044;-73
2022/05/17 04:07:20;;;;;;;7.88;2.33;;;13.40;99.90;;;;;;5058188;28;20041;-73
2022/05/17 04:09:46;;;;;;;6.97;2.60;;;13.40;99.90;;;;;;5057975;28;20456;-73
2022/05/17 04:12:12;;;;;;;7.78;2.85;;;13.70;99.90;;;;;;5074731;28;20043;-73
2022/05/17 04:14:38;;;;;;;5.95;2.67;;;13.40;99.90;;;;;;5075495;28;20052;-73
2022/05/17 04:17:05;;;;;;;5.22;2.28;;;13.50;99.90;;;;;;5057531;28;20049;-73
2022/05/17 04:19:31;;;;;;;8.57;3.15;;;13.50;99.90;;;;;;5074314;28;20046;-73
2022/05/17 04:21:58;;;;;;;6.40;2.80;;;13.50;99.90;;;;;;5057916;28;20539;-73
2022/05/17 04:24:25;;;;;;;5.88;2.63;;;13.60;99.90;;;;;;5074267;28;20048;-73
2022/05/17 04:26:50;;;;;;;5.57;1.67;;;13.60;99.90;;;;;;5041372;28;20044;-73
2022/05/17 04:29:16;;;;;;;3.75;2.90;;;13.60;99.90;;;;;;5074117;28;20046;-73
2022/05/17 04:31:41;;;;;;;7.75;2.10;;;13.70;99.90;;;;;;5057427;28;20040;-73
2022/05/17 04:34:07;;;;;;;6.47;3.10;;;13.80;99.90;;;;;;5057471;28;20381;-73
2022/05/17 04:36:33;;;;;;;4.78;2.58;;;13.80;99.90;;;;;;5041096;28;20043;-73
2022/05/17 04:39:00;;;;;;;5.93;2.83;;;13.90;99.90;;;;;;5074215;28;20058;-73
2022/05/17 04:41:26;;;;;;;8.60;3.03;;;13.90;99.90;;;;;;5057289;28;20040;-73
2022/05/17 04:43:51;;;;;;;4.65;2.30;;;14.00;99.90;;;;;;5040642;28;20381;-73
2022/05/17 04:46:17;;;;;;;13.25;2.67;;;14.10;99.90;;;;;;5057107;28;20538;-73
2022/05/17 04:48:43;;;;;;;3.63;1.85;;;14.10;99.90;;;;;;5073822;28;20315;-73
2022/05/17 04:51:11;;;;;;;4.72;2.63;;;14.20;99.90;;;;;;5057065;28;20514;-73
2022/05/17 04:53:38;;;;;;;7.88;2.67;;;14.30;99.90;;;;;;5073746;28;20048;-73
2022/05/17 04:56:05;;;;;;;5.38;2.70;;;14.40;99.90;;;;;;5074006;28;20548;-73
2022/05/17 04:58:30;;;;;;;4.70;2.00;;;14.50;99.90;;;;;;5073604;28;20106;-73
2022/05/17 05:00:56;;;;;;;5.68;2.45;;;14.50;99.90;;;;;;5056874;28;20107;-73
2022/05/17 05:03:22;;;;;;;4.63;2.35;;;14.60;99.90;;;;;;5056852;28;20041;-73
2022/05/17 05:05:48;;;;;;;7.07;2.67;;;14.70;99.90;;;;;;5057050;28;20041;-73
2022/05/17 05:08:14;;;;;;;8.07;3.40;;;14.90;99.90;;;;;;5040196;28;20037;-73
2022/05/17 05:10:42;;;;;;;5.88;2.15;;;15.00;99.90;;;;;;5073262;28;20047;-73
2022/05/17 05:13:14;;;;;;;5.15;2.33;;;14.80;99.90;;;;;;5057289;28;20044;-73
2022/05/17 05:15:39;;;;;;;4.50;2.63;;;14.90;99.90;;;;;;5073140;28;20049;-73
2022/05/17 05:18:05;;;;;;;5.00;2.42;;;14.90;99.90;;;;;;5056625;28;20037;-73
2022/05/17 05:20:31;;;;;;;4.90;2.13;;;14.90;99.90;;;;;;5073214;28;20045;-73
2022/05/17 05:22:56;;;;;;;5.38;2.88;;;15.00;99.90;;;;;;5056755;28;20130;-73
2022/05/17 05:25:22;;;;;;;5.60;1.90;;;15.20;99.90;;;;;;5073344;28;20049;-73
2022/05/17 05:27:48;;;;;;;8.85;2.40;;;15.00;99.90;;;;;;5073037;28;20036;-73
2022/05/17 05:30:15;;;;;;;5.53;2.58;;;15.00;99.90;;;;;;5039842;28;20036;-73
2022/05/17 05:32:41;;;;;;;6.57;2.58;;;15.10;99.90;;;;;;5072912;28;20039;-73
2022/05/17 05:35:08;;;;;;;6.88;2.50;;;15.10;99.90;;;;;;5056314;28;20484;-73
2022/05/17 05:37:33;;;;;;;6.95;2.55;;;15.10;99.90;;;;;;5039567;28;20043;-73
2022/05/17 05:39:59;;;;;;;9.55;2.33;;;15.10;99.90;;;;;;5072701;28;20044;-73
2022/05/17 05:42:25;;;;;;;10.93;2.38;;;15.10;99.90;;;;;;5055571;28;20044;-73
2022/05/17 05:44:50;;;;;;;6.43;2.30;;;15.10;99.90;;;;;;5055955;28;20510;-73
2022/05/17 05:47:16;;;;;;;6.05;2.38;;;15.20;99.90;;;;;;5072599;28;20044;-75
2022/05/17 05:49:42;;;;;;;7.35;2.20;;;15.20;99.90;;;;;;5022758;28;20049;-73
2022/05/17 05:52:08;;;;;;;5.07;2.28;;;15.50;99.90;;;;;;5072809;28;20036;-72
2022/05/17 05:54:33;;;;;;;6.53;2.28;;;15.40;99.90;;;;;;5056094;28;20044;-73
2022/05/17 05:57:02;;;;;;;9.02;2.55;;;15.10;99.90;;;;;;5056005;28;20110;-72
2022/05/17 05:59:29;;;;;;;6.82;2.60;;;15.70;99.90;;;;;;5073919;28;20124;-72
2022/05/17 06:01:55;;;;;;;4.97;2.33;;;15.80;99.90;;;;;;5072419;28;20039;-73
2022/05/17 06:04:21;;;;;;;5.22;2.65;;;15.90;99.90;;;;;;5056771;28;20033;-76
2022/05/17 06:06:47;;;;;;;3.22;2.17;;;16.00;99.90;;;;;;5039433;28;20101;-74
2022/05/17 06:09:13;;;;;;;4.35;2.35;;;16.20;99.90;;;;;;5072124;28;20123;-70
2022/05/17 06:11:38;;;;;;;5.25;2.35;;;16.20;99.90;;;;;;5072214;28;20047;-70
2022/05/17 06:14:05;;;;;;;8.85;2.75;;;16.30;99.90;;;;;;5072617;28;20106;-72
2022/05/17 06:16:31;;;;;;;8.73;2.35;;;16.30;99.90;;;;;;5055263;28;20052;-72
2022/05/17 06:18:57;;;;;;;6.70;2.40;;;16.30;99.90;;;;;;5039032;28;20052;-73
2022/05/17 06:21:23;;;;;;;6.00;2.50;;;16.40;99.90;;;;;;5055358;28;20040;-73
2022/05/17 06:23:49;;;;;;;3.20;1.77;;;16.40;99.90;;;;;;5072055;28;20048;-73
2022/05/17 06:26:15;;;;;;;3.72;2.35;;;16.50;99.90;;;;;;5072066;28;20043;-73
2022/05/17 06:28:40;;;;;;;3.30;2.13;;;16.60;99.90;;;;;;5038765;28;20051;-72
2022/05/17 06:31:06;;;;;;;2.75;1.90;;;16.50;99.90;;;;;;5038504;28;20044;-73
2022/05/17 06:33:32;;;;;;;7.38;2.20;;;16.60;99.90;;;;;;5055066;28;20037;-73
2022/05/17 06:35:57;;;;;;;4.88;2.10;;;16.70;99.90;;;;;;5055050;28;20044;-73
2022/05/17 06:38:23;;;;;;;6.50;2.95;;;16.70;99.90;;;;;;5055182;28;20083;-73
2022/05/17 06:40:49;;;;;;;4.35;1.95;;;16.70;99.90;;;;;;5071991;28;20069;-73
2022/05/17 06:43:15;;;;;;;4.72;2.10;;;16.70;99.90;;;;;;5054974;28;20041;-73
2022/05/17 06:45:41;;;;;;;4.82;2.38;;;16.90;99.90;;;;;;5071550;28;20048;-74
2022/05/17 06:48:07;;;;;;;7.20;2.13;;;17.00;99.90;;;;;;5038334;28;20094;-73
2022/05/17 06:50:33;;;;;;;6.43;2.03;;;17.00;99.90;;;;;;5071519;28;20135;-74
2022/05/17 06:52:59;;;;;;;4.15;2.15;;;17.10;99.90;;;;;;5055178;28;20182;-73
2022/05/17 06:55:25;;;;;;;3.40;1.60;;;17.20;99.90;;;;;;5055074;28;20169;-73
2022/05/17 06:57:51;;;;;;;4.78;2.00;;;17.30;99.90;;;;;;5071782;28;20499;-73
2022/05/17 07:00:19;;;;;;;3.10;1.98;;;17.40;99.90;;;;;;5071525;28;20087;-73
2022/05/17 07:02:45;;;;;;;3.33;1.80;;;17.50;99.90;;;;;;5071505;28;20074;-73
2022/05/17 07:05:11;;;;;;;4.88;2.10;;;17.50;99.90;;;;;;5071708;28;20479;-73
2022/05/17 07:07:38;;;;;;;4.22;1.92;;;17.60;99.90;;;;;;5071583;28;20080;-74
2022/05/17 07:15:34;;;;;;;2.63;1.70;;;17.90;99.90;;;;;;5071292;28;20148;-74
2022/05/17 07:18:02;;;;;;;3.25;1.70;;;18.00;99.90;;;;;;5055026;28;20131;-74
2022/05/17 07:20:29;;;;;;;4.43;2.08;;;18.10;99.90;;;;;;5071405;28;20094;-73
2022/05/17 07:22:54;;;;;;;5.88;2.30;;;18.20;99.90;;;;;;5071623;28;20594;-74
2022/05/17 07:25:20;;;;;;;4.53;1.65;;;18.30;99.90;;;;;;5054986;28;20055;-74
2022/05/17 07:27:46;;;;;;;6.82;2.10;;;18.30;99.90;;;;;;5054518;28;20044;-74
2022/05/17 07:30:13;;;;;;;10.13;2.65;;;18.40;99.90;;;;;;5038131;28;20131;-74
2022/05/17 07:32:38;;;;;;;2.08;1.60;;;18.40;99.90;;;;;;5071468;28;20542;-74
2022/05/17 07:35:06;;;;;;;5.57;1.80;;;18.50;99.90;;;;;;5071236;28;20136;-73
2022/05/17 07:37:36;;;;;;;9.73;1.98;;;18.60;99.90;;;;;;5038531;28;20091;-74
2022/05/17 07:40:02;;;;;;;8.90;2.58;;;18.50;99.90;;;;;;5071172;28;20040;-74
2022/05/17 07:42:28;;;;;;;6.90;1.63;;;18.50;99.90;;;;;;5071150;28;20043;-74
2022/05/17 07:44:54;;;;;;;5.50;2.22;;;18.60;99.90;;;;;;5071385;28;20123;-74
2022/05/17 07:47:20;;;;;;;5.38;1.83;;;18.60;99.90;;;;;;5071094;28;20041;-74
2022/05/17 07:49:46;;;;;;;4.55;1.40;;;18.80;99.90;;;;;;5021385;28;20446;-73
2022/05/17 07:52:12;;;;;;;3.67;2.17;;;18.80;99.90;;;;;;5054413;28;20090;-74
2022/05/17 07:54:37;;;;;;;2.17;1.50;;;18.90;99.90;;;;;;5054444;28;20119;-74
2022/05/17 07:57:05;;;;;;;3.70;1.50;;;19.00;99.90;;;;;;5054630;28;20119;-74
2022/05/17 07:59:31;;;;;;;2.47;1.40;;;19.10;99.90;;;;;;5071275;28;20440;-74
2022/05/17 08:01:56;;;;;;;4.95;1.83;;;19.20;99.90;;;;;;5054321;28;20082;-73
2022/05/17 08:04:25;;;;;;;2.10;1.52;;;19.30;99.90;;;;;;5055579;28;20054;-74
2022/05/17 08:06:51;;;;;;;4.72;1.42;;;19.30;99.90;;;;;;5074619;28;20053;-74
2022/05/17 08:09:18;;;;;;;4.75;1.65;;;19.50;99.90;;;;;;5074747;28;20033;-74
2022/05/17 08:11:44;;;;;;;4.68;1.13;;;19.50;99.90;;;;;;5058048;28;20400;-74
2022/05/17 08:14:10;;;;;;;4.82;1.40;;;19.60;99.90;;;;;;5041527;28;20038;-74
2022/05/17 08:16:37;;;;;;;7.15;1.40;;;19.70;99.90;;;;;;5057751;28;20098;-74
2022/05/17 08:19:03;;;;;;;4.22;1.73;;;19.70;99.90;;;;;;5074634;28;20044;-73
2022/05/17 08:21:28;;;;;;;7.43;1.73;;;19.70;99.90;;;;;;5074458;28;20047;-74
2022/05/17 08:23:54;;;;;;;3.75;1.27;;;19.80;99.90;;;;;;5057626;28;20044;-74
2022/05/17 08:29:04;;;;;;;2.83;1.08;;;19.80;99.90;;;;;;5074184;28;20083;-74
2022/05/17 08:31:29;;;;;;;7.35;1.55;;;19.80;99.90;;;;;;5073989;28;20036;-74
2022/05/17 08:33:55;;;;;;;3.60;1.63;;;19.90;99.90;;;;;;5040834;28;20037;-74
2022/05/17 08:36:21;;;;;;;5.22;1.30;;;19.90;99.90;;;;;;5073815;28;20036;-74
2022/05/17 08:38:49;;;;;;;5.35;1.50;;;20.00;99.90;;;;;;5040727;28;20047;-74
2022/05/17 08:41:44;;;;;;;3.90;1.20;;;20.00;99.90;;;;;;5057612;28;20086;-74
2022/05/17 08:44:13;;;;;;;4.72;1.27;;;20.10;99.90;;;;;;5057267;28;20082;-74
2022/05/17 08:47:11;;;;;;;3.53;1.45;;;20.20;99.90;;;;;;5057179;28;20127;-74
2022/05/17 08:49:53;;;;;;;6.57;1.33;;;20.30;99.90;;;;;;5073693;28;20044;-73
2022/05/17 08:52:22;;;;;;;2.67;1.13;;;20.40;99.90;;;;;;5073784;28;20036;-79
2022/05/17 08:54:51;;;;;;;3.50;1.27;;;20.50;99.90;;;;;;5057177;28;20614;-74
2022/05/17 08:57:44;;;;;;;1.65;1.20;;;20.60;99.90;;;;;;5057148;28;20032;-75
2022/05/17 09:00:42;;;;;;;3.40;1.27;;;20.50;99.90;;;;;;5056872;28;20046;-75
2022/05/17 09:03:29;;;;;;;1.77;0.90;;;20.50;99.90;;;;;;5073256;28;20407;-76
2022/05/17 09:06:16;;;;;;;2.55;1.17;;;20.60;99.90;;;;;;5056810;28;20407;-74
2022/05/17 09:09:08;;;;;;;2.30;0.90;;;20.70;99.90;;;;;;5073644;28;20086;-74
2022/05/17 09:11:37;;;;;;;0.52;0.40;;;20.70;99.90;;;;;;5073298;28;20039;-74
2022/05/17 09:14:16;;;;;;;1.40;0.90;;;20.80;99.90;;;;;;5056689;28;20051;-74
2022/05/17 09:16:53;;;;;;;2.10;0.88;;;20.80;99.90;;;;;;5072074;28;20056;-75
2022/05/17 09:19:19;;;;;;;2.53;0.88;;;20.90;99.90;;;;;;5073242;28;20048;-75
2022/05/17 09:21:49;;;;;;;1.38;0.93;;;21.00;99.90;;;;;;5073097;28;20040;-74
2022/05/17 09:24:18;;;;;;;3.20;0.57;;;20.90;99.90;;;;;;5056519;28;20145;-74
2022/05/17 09:27:00;;;;;;;1.92;0.95;;;20.90;99.90;;;;;;5056547;28;20040;-75
2022/05/17 09:29:39;;;;;;;2.17;0.90;;;20.90;99.90;;;;;;5056545;28;20036;-75
2022/05/17 09:32:07;;;;;;;2.45;0.73;;;21.10;99.90;;;;;;5056428;28;20077;-75
2022/05/17 09:34:42;;;;;;;0.80;0.50;;;21.30;99.90;;;;;;5073574;28;20124;-75
2022/05/17 09:37:17;;;;;;;1.33;0.47;;;21.20;99.90;;;;;;5072650;28;20032;-75
2022/05/17 09:39:49;;;;;;;1.45;0.68;;;21.40;99.90;;;;;;5072864;28;20047;-80
2022/05/17 09:42:31;;;;;;;2.70;0.80;;;21.40;99.90;;;;;;5056406;28;20605;-80
2022/05/17 09:45:02;;;;;;;5.53;0.77;;;21.50;99.90;;;;;;5056172;28;20083;-80
2022/05/17 09:47:42;;;;;;;1.55;0.85;;;21.60;99.90;;;;;;5056181;28;20036;-81
2022/05/17 09:53:00;;;;;;;0.63;0.50;;;;;;;;;;5072752;28;20405;-81
2022/05/17 09:55:28;;;;;;;2.22;0.65;;;;;;;;;;5056253;28;20507;-80
2022/05/17 09:57:55;;;;;;;2.95;0.68;;;;;;;;;;5072541;28;20045;-80
2022/05/17 10:00:28;;;;;;;3.15;0.70;;;;;;;;;;5072490;28;20048;-80
2022/05/17 10:03:12;;;;;;;0.55;0.40;;;;;;;;;;5072676;28;20526;-80
2022/05/17 10:05:43;;;;;;;2.40;0.55;;;;;;;;;;5055968;28;20480;-80
2022/05/17 10:08:15;;;;;;;0.90;0.60;;;;;;;;;;5056020;28;20514;-80
2022/05/17 10:10:43;;;;;;;2.53;0.80;;;;;;;;;;5057384;28;20045;-80
2022/05/17 10:13:15;;;;;;;3.63;0.80;;;;;;;;;;5073211;28;20127;-80
2022/05/17 10:15:43;;;;;;;2.15;0.55;;;;;;;;;;5055308;28;20052;-80
2022/05/17 10:18:19;;;;;;;0.88;0.32;;;;;;;;;;5072180;28;20044;-80
2022/05/17 10:20:47;;;;;;;0.68;0.55;;;;;;;;;;5072286;28;20500;-80
2022/05/17 10:23:26;;;;;;;1.77;0.77;;;;;;;;;;5055679;28;20445;-80
2022/05/17 10:25:56;;;;;;;1.52;0.50;;;;;;;;;;5055356;28;20036;-79
2022/05/17 10:28:45;;;;;;;1.25;0.35;;;;;;;;;;5071751;28;20128;-82
2022/05/17 10:31:15;;;;;;;1.75;0.60;;;;;;;;;;5071736;28;20048;-82
2022/05/17 10:34:07;;;;;;;1.98;0.57;;;;;;;;;;5072005;28;20040;-82
2022/05/17 10:36:53;;;;;;;2.38;0.63;;;;;;;;;;5054569;28;20048;-83
2022/05/17 10:39:37;;;;;;;3.65;0.63;;;;;;;;;;5071581;28;20037;-82
2022/05/17 10:42:04;;;;;;;2.10;0.50;;;;;;;;;;5071843;28;20043;-82
2022/05/17 10:44:39;;;;;;;2.85;0.60;;;;;;;;;;5038702;28;20090;-82
2022/05/17 10:47:10;;;;;;;1.67;0.52;;;;;;;;;;5055318;28;20123;-83
2022/05/17 10:49:42;;;;;;;1.23;0.30;;;;;;;;;;5054942;28;20036;-82
2022/05/17 10:52:22;;;;;;;1.00;0.35;;;;;;;;;;5054868;28;20050;-82
2022/05/17 10:55:17;;;;;;;3.53;0.85;;;22.80;99.90;;;;;;5071588;28;20036;-82
2022/05/17 10:58:01;;;;;;;0.43;0.30;;;22.80;99.50;;;;;;5055131;28;20480;-82
2022/05/17 11:00:41;;;;;;;1.00;0.40;;;22.70;99.90;;;;;;5071717;28;20049;-75
2022/05/17 11:03:22;;;;;;;0.65;0.25;;;22.60;99.90;;;;;;5071563;28;20067;-75
2022/05/17 11:05:57;;;;;;;2.20;0.50;;;22.70;99.10;;;;;;5071409;28;20045;-75
2022/05/17 11:08:42;;;;;;;1.15;0.57;;;22.80;97.90;;;;;;5071737;28;20499;-74
2022/05/17 11:11:25;;;;;;;1.95;0.55;;;22.80;97.10;;;;;;5071422;28;20503;-74
2022/05/17 11:14:25;;;;;;;0.20;0.20;;;22.80;97.90;;;;;;5071317;28;20093;-74
2022/05/17 11:17:11;;;;;;;0.90;0.43;;;22.90;99.20;;;;;;5053681;28;20059;-74
2022/05/17 11:19:43;;;;;;;0.32;0.10;;;22.90;98.90;;;;;;5071661;28;20483;-75
2022/05/17 11:22:15;;;;;;;1.77;0.70;;;22.90;98.80;;;;;;5071327;28;20040;-74
2022/05/17 11:24:59;;;;;;;0.20;0.20;;;22.90;98.70;;;;;;5071411;28;20062;-74
2022/05/17 11:27:46;;;;;;;1.23;0.35;;;22.90;95.30;;;;;;5071328;28;20074;-74
2022/05/17 11:30:14;;;;;;;6.18;0.52;;;22.80;95.40;;;;;;5054426;28;20045;-75
2022/05/17 11:33:00;;;;;;;2.30;0.43;;;22.80;94.10;;;;;;5071163;28;20044;-75
2022/05/17 11:35:29;;;;;;;0.70;0.30;;;22.80;94.20;;;;;;5070936;28;20066;-75
2022/05/17 11:37:55;;;;;;;1.25;0.55;;;22.80;95.50;;;;;;5071455;28;20373;-75
2022/05/17 11:40:43;;;;;;;2.53;0.80;;;22.90;94.20;;;;;;5057741;28;20047;-75
2022/05/17 11:45:56;;;;;;;2.10;0.82;;;23.00;94.20;;;;;;5074933;28;20105;-75
2022/05/17 11:48:46;;;;;;;0.40;0.30;;;23.00;95.20;;;;;;5058641;28;20036;-76
2022/05/17 11:51:12;;;;;;;0.95;0.30;;;23.00;93.50;;;;;;5058191;28;20068;-74
2022/05/17 11:53:49;;;;;;;1.50;0.73;;;23.10;94.90;;;;;;5075002;28;20126;-73
2022/05/17 11:56:15;;;;;;;0.98;0.30;;;23.30;94.90;;;;;;5058296;28;20036;-74
2022/05/17 11:58:42;;;;;;;1.10;0.30;;;23.50;95.00;;;;;;5074746;28;20548;-75
2022/05/17 12:01:26;;;;;;;4.47;0.68;;;23.30;92.30;;;;;;5074638;28;20089;-75
2022/05/17 12:04:03;;;;;;;0.95;0.50;;;23.30;93.70;;;;;;5058249;28;20429;-75
2022/05/17 12:06:41;;;;;;;1.92;0.50;;;23.40;93.50;;;;;;5057970;28;20055;-75
2022/05/17 12:09:12;;;;;;;1.27;0.30;;;23.60;94.70;;;;;;5057905;28;20044;-74
2022/05/17 12:11:45;;;;;;;1.25;0.50;;;23.70;94.10;;;;;;5074416;28;20049;-75
2022/05/17 12:14:33;;;;;;;5.50;0.40;;;23.80;93.00;;;;;;5074800;28;20509;-81
2022/05/17 12:17:02;;;;;;;1.17;0.60;;;23.80;92.70;;;;;;5074305;28;20064;-83
2022/05/17 12:20:04;;;;;;;0.77;0.35;;;23.70;93.30;;;;;;5074348;28;20154;-83
2022/05/17 12:22:57;;;;;;;0.95;0.40;;;23.60;91.40;;;;;;5057596;28;20032;-84
2022/05/17 12:25:38;;;;;;;0.35;0.30;;;23.60;91.60;;;;;;5014919;28;20459;-84
2022/05/17 12:28:18;;;;;;;1.42;0.60;;;23.70;91.80;;;;;;5074241;28;20041;-85
2022/05/17 12:30:54;;;;;;;1.10;0.60;;;23.60;92.40;;;;;;5074291;28;20040;-85
2022/05/17 12:33:24;;;;;;;3.47;0.50;;;23.50;93.80;;;;;;5057687;28;20028;-84
2022/05/17 12:35:52;;;;;;;0.40;0.32;;;23.40;94.10;;;;;;5057635;28;20464;-85
2022/05/17 12:44:34;;;;;;;0.85;0.30;;;23.50;92.70;;;;;;5073898;28;20101;-83
2022/05/17 12:47:01;;;;;;;0.30;0.25;;;23.50;94.80;;;;;;5073985;28;20168;-83
2022/05/17 12:49:30;;;;;;;1.20;0.30;;;23.50;95.50;;;;;;5057194;28;20048;-84
2022/05/17 12:51:59;;;;;;;1.27;0.30;;;23.50;94.10;;;;;;5074046;28;20124;-84
2022/05/17 12:54:31;;;;;;;3.43;0.70;;;23.50;95.70;;;;;;5057374;28;20075;-83
2022/05/17 12:56:58;;;;;;;0.77;0.40;;;23.50;95.80;;;;;;5056984;28;20040;-83
2022/05/17 12:59:33;;;;;;;1.75;0.38;;;23.50;94.20;;;;;;5056939;28;20045;-83
2022/05/17 13:02:01;;;;;;;3.58;0.63;;;23.60;93.90;;;;;;5056817;28;20094;-84
2022/05/17 13:04:34;;;;;;;1.75;0.60;;;23.70;94.10;;;;;;5073621;28;20040;-85
2022/05/17 13:07:19;;;;;;;2.83;0.45;;;23.80;93.60;;;;;;5073598;28;20079;-83
2022/05/17 13:10:04;;;;;;;0.77;0.68;;;24.00;91.50;;;;;;5073353;28;20041;-82
2022/05/17 13:12:32;;;;;;;2.95;0.68;;;24.00;93.40;;;;;;5073364;28;20097;-82
2022/05/17 13:15:02;;;;;;;1.17;0.60;;;24.20;91.80;;;;;;5073615;28;20040;-82
2022/05/17 13:17:34;;;;;;;2.50;0.85;;;24.40;94.00;;;;;;5073097;28;20403;-82
2022/05/17 13:20:28;;;;;;;3.70;0.73;;;24.50;93.60;;;;;;5056628;28;20127;-85
2022/05/17 13:22:55;;;;;;;3.55;0.57;;;24.30;90.20;;;;;;5047175;28;20055;-81
2022/05/17 13:25:26;;;;;;;2.78;1.23;;;24.10;92.10;;;;;;5056705;28;20119;-82
2022/05/17 13:27:54;;;;;;;0.68;0.60;;;24.10;92.50;;;;;;5073003;28;20040;-84
2022/05/17 13:30:42;;;;;;;1.65;0.60;;;24.00;93.50;;;;;;5056586;28;20488;-83
2022/05/17 13:33:25;;;;;;;1.00;0.55;;;23.90;92.50;;;;;;5073076;28;20036;-84
2022/05/17 13:36:07;;;;;;;0.68;0.52;;;23.80;91.80;;;;;;5073006;28;20076;-84